Time,TemperatureF,DewpointF,PressureIn,WindDirection,WindDirectionDegrees,WindSpeedMPH,WindSpeedGustMPH,Humidity,HourlyPrecipIn,Conditions,Clouds,dailyrainin,SoftwareType,DateUTC
2013-04-02 00:05:00,71.5,65.0,30.03,WSW,250,0.0,1.0,80,0.00,,,0.00,weatherlink.com 1.10,2013-04-02 04:05:00,
2013-04-02 00:20:00,71.2,65.0,30.04,West,260,3.0,6.0,80,0.00,,,0.00,weatherlink.com 1.10,2013-04-02 04:20:00,
2013-04-02 00:35:00,71.0,64.0,30.03,WNW,285,5.0,9.0,79,0.00,,,0.00,weatherlink.com 1.10,2013-04-02 04:35:00,
2013-04-02 00:50:00,71.5,64.0,30.03,West,274,0.0,7.0,77,0.00,,,0.00,weatherlink.com 1.10,2013-04-02 04:50:00,
2013-04-02 01:05:00,71.5,64.0,30.03,WNW,287,1.0,10.0,77,0.00,,,0.00,weatherlink.com 1.10,2013-04-02 05:05:00,
2013-04-02 01:20:00,71.0,64.0,30.03,WNW,285,0.0,10.0,78,0.00,,,0.00,weatherlink.com 1.10,2013-04-02 05:20:00,
2013-04-02 01:35:00,70.8,64.0,30.03,WNW,298,0.0,7.0,79,0.00,,,0.00,weatherlink.com 1.10,2013-04-02 05:35:00,
2013-04-02 01:50:00,70.5,64.0,30.03,WNW,291,2.0,7.0,80,0.00,,,0.00,weatherlink.com 1.10,2013-04-02 05:50:00,
2013-04-02 02:05:00,70.2,64.0,30.03,WNW,291,0.0,1.0,81,0.00,,,0.00,weatherlink.com 1.10,2013-04-02 06:05:00,
2013-04-02 02:20:00,69.8,64.0,30.02,WNW,291,0.0,5.0,82,0.00,,,0.00,weatherlink.com 1.10,2013-04-02 06:20:00,
2013-04-02 02:35:00,69.5,64.0,30.02,WNW,290,0.0,5.0,83,0.00,,,0.00,weatherlink.com 1.10,2013-04-02 06:35:00,
2013-04-02 02:50:00,69.2,64.0,30.01,WNW,289,0.0,3.0,84,0.00,,,0.00,weatherlink.com 1.10,2013-04-02 06:50:00,
2013-04-02 03:05:00,69.0,64.0,30.01,WNW,289,0.0,0.0,85,0.00,,,0.00,weatherlink.com 1.10,2013-04-02 07:05:00,
2013-04-02 03:20:00,68.8,64.0,30.01,WNW,289,0.0,0.0,85,0.00,,,0.00,weatherlink.com 1.10,2013-04-02 07:20:00,
2013-04-02 03:35:00,68.5,64.0,30.00,WNW,289,0.0,0.0,86,0.00,,,0.00,weatherlink.com 1.10,2013-04-02 07:35:00,
2013-04-02 03:50:00,68.3,64.0,30.00,WNW,289,0.0,0.0,87,0.00,,,0.00,weatherlink.com 1.10,2013-04-02 07:50:00,
2013-04-02 04:05:00,68.0,64.0,30.00,WNW,289,0.0,0.0,87,0.00,,,0.00,weatherlink.com 1.10,2013-04-02 08:05:00,
2013-04-02 04:20:00,67.8,64.0,30.00,WNW,289,0.0,1.0,88,0.00,,,0.00,weatherlink.com 1.10,2013-04-02 08:20:00,
2013-04-02 04:38:00,67.5,64.0,30.00,WNW,289,0.0,1.0,89,0.00,,,0.00,weatherlink.com 1.10,2013-04-02 08:38:00,
2013-04-02 04:50:00,67.5,64.0,30.00,WNW,289,0.0,1.0,89,0.00,,,0.00,weatherlink.com 1.10,2013-04-02 08:50:00,
2013-04-02 05:05:00,67.2,64.0,30.00,WNW,289,0.0,0.0,89,0.00,,,0.00,weatherlink.com 1.10,2013-04-02 09:05:00,
2013-04-02 05:20:00,67.2,64.0,30.01,WNW,289,0.0,0.0,90,0.00,,,0.00,weatherlink.com 1.10,2013-04-02 09:20:00,
2013-04-02 05:35:00,67.2,64.0,30.01,WNW,289,0.0,1.0,90,0.00,,,0.00,weatherlink.com 1.10,2013-04-02 09:35:00,
2013-04-02 05:50:00,67.2,65.0,30.01,WNW,289,0.0,5.0,91,0.00,,,0.00,weatherlink.com 1.10,2013-04-02 09:50:00,
2013-04-02 06:05:00,67.2,65.0,30.01,WNW,289,0.0,0.0,91,0.00,,,0.00,weatherlink.com 1.10,2013-04-02 10:05:00,
2013-04-02 06:20:00,67.0,65.0,30.01,WNW,289,0.0,0.0,92,0.00,,,0.00,weatherlink.com 1.10,2013-04-02 10:20:00,
2013-04-02 06:35:00,67.0,65.0,30.02,WNW,289,0.0,0.0,92,0.00,,,0.00,weatherlink.com 1.10,2013-04-02 10:35:00,
2013-04-02 06:50:00,67.2,65.0,30.02,WNW,291,0.0,5.0,93,0.00,,,0.00,weatherlink.com 1.10,2013-04-02 10:50:00,
2013-04-02 07:05:00,66.8,65.0,30.03,NNW,327,0.0,7.0,93,0.00,,,0.00,weatherlink.com 1.10,2013-04-02 11:05:00,
2013-04-02 07:20:00,66.7,65.0,30.03,NNW,327,3.0,7.0,94,0.00,,,0.00,weatherlink.com 1.10,2013-04-02 11:20:00,
2013-04-02 07:35:00,66.5,65.0,30.04,NNW,328,0.0,6.0,94,0.00,,,0.00,weatherlink.com 1.10,2013-04-02 11:35:00,
2013-04-02 07:50:00,66.7,65.0,30.05,NNW,327,1.0,1.0,95,0.00,,,0.00,weatherlink.com 1.10,2013-04-02 11:50:00,
2013-04-02 08:05:00,66.5,65.0,30.05,NW,325,0.0,6.0,95,0.00,,,0.00,weatherlink.com 1.10,2013-04-02 12:05:00,
2013-04-02 08:20:00,66.7,65.0,30.06,NNW,329,0.0,8.0,95,0.00,,,0.00,weatherlink.com 1.10,2013-04-02 12:20:00,
2013-04-02 08:35:00,66.8,65.0,30.07,NW,306,9.0,10.0,95,0.00,,,0.00,weatherlink.com 1.10,2013-04-02 12:35:00,
2013-04-02 08:50:00,67.7,66.0,30.07,NNW,332,4.0,7.0,95,0.00,,,0.00,weatherlink.com 1.10,2013-04-02 12:50:00,
2013-04-02 09:05:00,68.3,67.0,30.08,North,359,0.0,7.0,95,0.00,,,0.00,weatherlink.com 1.10,2013-04-02 13:05:00,
2013-04-02 09:20:00,69.3,68.0,30.08,NW,316,4.0,8.0,94,0.00,,,0.00,weatherlink.com 1.10,2013-04-02 13:20:00,
2013-04-02 09:35:00,70.7,67.0,30.09,NNW,327,0.0,11.0,89,0.00,,,0.00,weatherlink.com 1.10,2013-04-02 13:35:00,
2013-04-02 09:50:00,72.7,67.0,30.09,West,277,0.0,6.0,82,0.00,,,0.00,weatherlink.com 1.10,2013-04-02 13:50:00,
2013-04-02 10:05:00,73.9,66.0,30.08,NW,322,7.0,7.0,75,0.00,,,0.00,weatherlink.com 1.10,2013-04-02 14:05:00,
2013-04-02 10:20:00,74.5,63.0,30.09,NW,325,0.0,11.0,67,0.00,,,0.00,weatherlink.com 1.10,2013-04-02 14:20:00,
2013-04-02 10:35:00,75.0,61.0,30.09,North,5,9.0,12.0,63,0.00,,,0.00,weatherlink.com 1.10,2013-04-02 14:35:00,
2013-04-02 10:50:00,75.5,62.0,30.09,North,2,0.0,8.0,64,0.00,,,0.00,weatherlink.com 1.10,2013-04-02 14:50:00,
2013-04-02 11:05:00,75.9,62.0,30.09,NNW,336,0.0,7.0,62,0.00,,,0.00,weatherlink.com 1.10,2013-04-02 15:05:00,
2013-04-02 11:20:00,76.9,62.0,30.09,WNW,299,4.0,8.0,61,0.00,,,0.00,weatherlink.com 1.10,2013-04-02 15:20:00,
2013-04-02 11:35:00,76.9,61.0,30.08,North,4,0.0,9.0,58,0.00,,,0.00,weatherlink.com 1.10,2013-04-02 15:35:00,
2013-04-02 11:51:00,78.5,62.0,30.09,North,6,0.0,6.0,57,0.00,,,0.00,weatherlink.com 1.10,2013-04-02 15:51:00,
2013-04-02 12:06:00,79.5,61.0,30.09,NNW,344,3.0,6.0,53,0.00,,,0.00,weatherlink.com 1.10,2013-04-02 16:06:00,
2013-04-02 12:51:00,79.8,65.0,30.08,ESE,108,4.0,8.0,60,0.00,,,0.00,weatherlink.com 1.10,2013-04-02 16:51:00,
2013-04-02 13:06:00,78.0,64.0,30.07,East,90,5.0,14.0,63,0.00,,,0.00,weatherlink.com 1.10,2013-04-02 17:06:00,
2013-04-02 13:21:00,77.8,64.0,30.07,East,96,10.0,14.0,63,0.00,,,0.00,weatherlink.com 1.10,2013-04-02 17:21:00,
2013-04-02 13:51:00,77.6,63.0,30.06,ESE,106,4.0,16.0,62,0.00,,,0.00,weatherlink.com 1.10,2013-04-02 17:51:00,
2013-04-02 14:06:00,76.9,63.0,30.05,East,94,14.0,16.0,63,0.00,,,0.00,weatherlink.com 1.10,2013-04-02 18:06:00,
2013-04-02 14:36:00,78.4,64.0,30.04,ENE,71,3.0,12.0,61,0.00,,,0.00,weatherlink.com 1.10,2013-04-02 18:36:00,
2013-04-02 15:36:00,78.4,64.0,30.02,ESE,109,5.0,14.0,61,0.00,,,0.00,weatherlink.com 1.10,2013-04-02 19:36:00,
2013-04-02 16:06:00,79.1,63.0,30.02,ESE,103,3.0,10.0,59,0.00,,,0.00,weatherlink.com 1.10,2013-04-02 20:06:00,
2013-04-02 16:21:00,78.4,64.0,30.02,East,87,0.0,14.0,61,0.00,,,0.00,weatherlink.com 1.10,2013-04-02 20:21:00,
2013-04-02 16:36:00,78.0,64.0,30.02,East,85,10.0,14.0,62,0.00,,,0.00,weatherlink.com 1.10,2013-04-02 20:36:00,
2013-04-02 18:06:00,76.7,64.0,30.02,East,91,4.0,14.0,66,0.00,,,0.00,weatherlink.com 1.10,2013-04-02 22:06:00,
2013-04-02 18:36:00,76.6,63.0,30.02,East,91,5.0,15.0,63,0.00,,,0.00,weatherlink.com 1.10,2013-04-02 22:36:00,
2013-04-02 18:51:00,76.7,64.0,30.02,ENE,73,3.0,15.0,64,0.00,,,0.00,weatherlink.com 1.10,2013-04-02 22:51:00,
2013-04-02 19:36:00,75.9,64.0,30.03,East,90,0.0,8.0,67,0.00,,,0.00,weatherlink.com 1.10,2013-04-02 23:36:00,
2013-04-02 19:51:00,75.5,64.0,30.03,East,79,5.0,15.0,68,0.00,,,0.00,weatherlink.com 1.10,2013-04-02 23:51:00,
2013-04-02 20:36:00,75.3,65.0,30.04,ENE,71,5.0,13.0,70,0.00,,,0.00,weatherlink.com 1.10,2013-04-03 00:36:00,
2013-04-02 20:51:00,75.2,65.0,30.05,East,79,3.0,13.0,71,0.00,,,0.00,weatherlink.com 1.10,2013-04-03 00:51:00,
2013-04-02 21:06:00,75.2,65.0,30.05,ENE,61,3.0,11.0,71,0.00,,,0.00,weatherlink.com 1.10,2013-04-03 01:06:00,
2013-04-02 21:21:00,75.2,65.0,30.06,ENE,60,0.0,5.0,71,0.00,,,0.00,weatherlink.com 1.10,2013-04-03 01:21:00,
2013-04-02 21:36:00,75.0,65.0,30.06,ENE,69,0.0,14.0,72,0.00,,,0.00,weatherlink.com 1.10,2013-04-03 01:36:00,
2013-04-02 22:06:00,75.2,66.0,30.07,East,83,0.0,9.0,73,0.00,,,0.00,weatherlink.com 1.10,2013-04-03 02:06:00,
2013-04-02 22:21:00,75.2,66.0,30.07,East,87,7.0,8.0,74,0.00,,,0.00,weatherlink.com 1.10,2013-04-03 02:21:00,
2013-04-02 22:36:00,74.8,66.0,30.08,East,85,5.0,11.0,75,0.00,,,0.00,weatherlink.com 1.10,2013-04-03 02:36:00,
2013-04-02 22:51:00,74.6,66.0,30.07,East,90,7.0,11.0,75,0.00,,,0.00,weatherlink.com 1.10,2013-04-03 02:51:00,
2013-04-02 23:06:00,74.5,66.0,30.07,East,91,0.0,9.0,74,0.00,,,0.00,weatherlink.com 1.10,2013-04-03 03:06:00,
2013-04-02 23:21:00,74.6,66.0,30.07,East,91,0.0,9.0,75,0.00,,,0.00,weatherlink.com 1.10,2013-04-03 03:21:00,
2013-04-02 23:51:00,74.3,67.0,30.07,East,96,0.0,10.0,77,0.00,,,0.00,weatherlink.com 1.10,2013-04-03 03:51:00,